createdAt,value
2023-02-02T00:01:41.345Z,1.16
2023-02-02T00:04:09.744Z,1.14
2023-02-02T00:06:37.678Z,1.08
2023-02-02T00:09:05.644Z,0.99
2023-02-02T00:11:33.520Z,1.02
2023-02-02T00:14:01.489Z,1.03
2023-02-02T00:16:29.475Z,0.98
2023-02-02T00:18:59.333Z,0.90
2023-02-02T00:21:27.953Z,0.92
2023-02-02T00:23:56.128Z,0.88
2023-02-02T00:26:24.410Z,0.82
2023-02-02T00:28:52.898Z,0.85
2023-02-02T00:31:20.907Z,0.87
2023-02-02T00:33:49.862Z,0.89
2023-02-02T00:36:19.367Z,0.92
2023-02-02T00:38:48.346Z,0.96
2023-02-02T00:41:16.514Z,0.98
2023-02-02T00:43:44.794Z,1.01
2023-02-02T00:46:14.912Z,0.97
2023-02-02T00:48:42.986Z,0.91
2023-02-02T00:51:11.464Z,0.89
2023-02-02T00:53:39.548Z,0.90
2023-02-02T00:56:07.507Z,0.93
2023-02-02T00:58:35.790Z,0.95
2023-02-02T01:01:03.923Z,1.00
2023-02-02T01:03:31.927Z,1.04
2023-02-02T01:05:59.894Z,1.08
2023-02-02T01:08:27.868Z,1.11
2023-02-02T01:10:59.316Z,1.09
2023-02-02T01:13:27.285Z,1.08
2023-02-02T01:15:55.972Z,1.04
2023-02-02T01:18:23.953Z,1.05
2023-02-02T01:20:58.974Z,1.05
2023-02-02T01:23:27.571Z,1.04
2023-02-02T01:25:56.557Z,1.02
2023-02-02T01:28:25.263Z,1.04
2023-02-02T01:30:53.583Z,1.08
2023-02-02T01:33:23.847Z,1.04
2023-02-02T01:35:52.931Z,0.98
2023-02-02T01:38:21.728Z,0.95
2023-02-02T01:40:53.999Z,0.99
2023-02-02T01:43:23.910Z,0.97
2023-02-02T01:45:52.766Z,0.95
2023-02-02T01:48:23.334Z,0.98
2023-02-02T01:50:53.758Z,0.99
2023-02-02T01:53:22.854Z,0.96
2023-02-02T01:55:51.233Z,1.00
2023-02-02T01:58:25.138Z,1.00
2023-02-02T02:00:54.077Z,1.00
2023-02-02T02:03:24.369Z,0.99
2023-02-02T02:06:13.401Z,1.01
2023-02-02T02:08:49.682Z,1.02
2023-02-02T02:11:18.270Z,1.02
2023-02-02T02:14:05.904Z,0.99
2023-02-02T02:16:50.273Z,0.95
2023-02-02T02:19:27.435Z,0.95
2023-02-02T02:22:14.152Z,0.95
2023-02-02T02:25:00.957Z,0.93
2023-02-02T02:27:41.724Z,0.94
2023-02-02T02:30:28.536Z,0.92
2023-02-02T02:33:15.150Z,0.94
2023-02-02T02:35:51.081Z,0.94
2023-02-02T02:38:38.017Z,0.93
2023-02-02T02:41:12.038Z,0.92
2023-02-02T02:43:46.349Z,0.90
2023-02-02T02:46:14.591Z,0.89
2023-02-02T02:48:46.191Z,0.89
2023-02-02T02:51:33.290Z,0.90
2023-02-02T02:54:02.022Z,0.86
2023-02-02T02:56:38.828Z,0.87
2023-02-02T02:59:10.900Z,0.86
2023-02-02T03:02:05.126Z,0.87
2023-02-02T03:04:35.761Z,0.90
2023-02-02T03:07:07.610Z,0.87
2023-02-02T03:09:39.371Z,0.80
2023-02-02T03:12:07.425Z,0.79
2023-02-02T03:14:36.332Z,0.78
2023-02-02T03:17:04.297Z,0.80
2023-02-02T03:19:32.879Z,0.80
2023-02-02T03:22:01.047Z,0.79
2023-02-02T03:24:29.124Z,0.71
2023-02-02T03:26:57.291Z,0.74
2023-02-02T03:29:27.513Z,0.78
2023-02-02T03:31:55.687Z,0.77
2023-02-02T03:34:23.531Z,0.77
2023-02-02T03:36:51.419Z,0.82
2023-02-02T03:39:19.515Z,0.80
2023-02-02T03:41:47.467Z,0.78
2023-02-02T03:44:15.538Z,0.77
2023-02-02T03:46:43.411Z,0.82
2023-02-02T03:49:11.470Z,0.82
2023-02-02T03:51:39.552Z,0.79
2023-02-02T03:54:07.369Z,0.75
2023-02-02T03:56:35.283Z,0.79
2023-02-02T03:59:03.764Z,0.80
2023-02-02T04:01:31.850Z,0.82
2023-02-02T04:03:59.911Z,0.83
2023-02-02T04:06:27.875Z,0.84
2023-02-02T04:08:55.841Z,0.85
2023-02-02T04:11:23.632Z,0.89
2023-02-02T04:13:51.575Z,0.94
2023-02-02T04:16:19.545Z,0.96
2023-02-02T04:18:47.518Z,0.98
2023-02-02T04:21:15.385Z,1.02
2023-02-02T04:23:43.232Z,1.07
2023-02-02T04:26:11.215Z,1.07
2023-02-02T04:28:39.190Z,1.02
2023-02-02T04:31:07.207Z,1.07
2023-02-02T04:33:36.478Z,1.00
2023-02-02T04:36:04.737Z,1.05
2023-02-02T04:38:32.810Z,1.05
2023-02-02T04:41:06.200Z,1.11
2023-02-02T04:43:34.687Z,1.13
2023-02-02T04:46:02.845Z,1.03
2023-02-02T04:48:31.160Z,1.04
2023-02-02T04:51:00.736Z,1.07
2023-02-02T04:53:29.238Z,1.03
2023-02-02T04:55:57.204Z,0.98
2023-02-02T04:58:25.072Z,0.94
2023-02-02T05:00:53.054Z,1.02
2023-02-02T05:03:21.017Z,1.07
2023-02-02T05:05:49.071Z,0.99
2023-02-02T05:08:16.975Z,1.04
2023-02-02T05:10:45.158Z,1.00
2023-02-02T05:13:12.966Z,1.03
2023-02-02T05:15:40.810Z,1.06
2023-02-02T05:18:08.916Z,1.01
2023-02-02T05:20:36.790Z,1.03
2023-02-02T05:23:04.751Z,1.06
2023-02-02T05:25:32.726Z,0.99
2023-02-02T05:28:01.098Z,1.02
2023-02-02T05:30:29.093Z,1.07
2023-02-02T05:32:57.036Z,1.08
2023-02-02T05:35:25.245Z,1.09
2023-02-02T05:37:53.391Z,1.13
2023-02-02T05:40:21.363Z,1.10
2023-02-02T05:42:49.639Z,1.10
2023-02-02T05:45:17.514Z,1.13
2023-02-02T05:47:45.476Z,1.13
2023-02-02T05:50:13.749Z,1.12
2023-02-02T05:52:43.253Z,1.04
2023-02-02T05:55:11.232Z,0.97
2023-02-02T05:57:39.092Z,0.96
2023-02-02T06:00:07.566Z,0.93
2023-02-02T06:02:40.046Z,0.79
2023-02-02T06:05:08.259Z,0.79
2023-02-02T06:07:36.181Z,0.81
2023-02-02T06:10:04.783Z,0.82
2023-02-02T06:12:32.644Z,0.84
2023-02-02T06:15:00.721Z,0.81
2023-02-02T06:17:28.891Z,0.82
2023-02-02T06:19:56.871Z,0.84
2023-02-02T06:22:25.130Z,0.89
2023-02-02T06:24:53.721Z,0.87
2023-02-02T06:27:21.995Z,0.90
2023-02-02T06:29:49.855Z,0.96
2023-02-02T06:32:18.031Z,0.99
2023-02-02T06:34:45.899Z,1.02
2023-02-02T06:37:13.870Z,1.04
2023-02-02T06:39:42.141Z,1.01
2023-02-02T06:42:20.713Z,1.06
2023-02-02T06:44:49.985Z,1.11
2023-02-02T06:47:17.927Z,1.17
2023-02-02T06:49:45.766Z,1.19
2023-02-02T06:52:13.662Z,1.21
2023-02-02T06:54:41.634Z,1.22
2023-02-02T06:57:09.679Z,1.25
2023-02-02T06:59:38.495Z,1.28
2023-02-02T07:02:08.719Z,1.34
2023-02-02T07:04:36.582Z,1.36
2023-02-02T07:07:04.504Z,1.37
2023-02-02T07:09:34.059Z,1.40
2023-02-02T07:12:01.935Z,1.49
2023-02-02T07:14:29.895Z,1.46
2023-02-02T07:16:57.764Z,1.46
2023-02-02T07:19:25.591Z,1.49
2023-02-02T07:21:53.698Z,1.55
2023-02-02T07:24:21.674Z,1.60
2023-02-02T07:26:49.779Z,1.66
2023-02-02T07:29:17.707Z,1.70
2023-02-02T07:31:46.155Z,1.74
2023-02-02T07:34:14.271Z,1.73
2023-02-02T07:36:42.235Z,1.70
2023-02-02T07:39:11.756Z,1.69
2023-02-02T07:41:39.706Z,1.67
2023-02-02T07:44:18.019Z,1.50
2023-02-02T07:46:47.515Z,1.60
2023-02-02T07:49:16.833Z,1.68
2023-02-02T07:51:47.798Z,1.79
2023-02-02T07:54:16.144Z,1.85
2023-02-02T07:56:44.123Z,1.84
2023-02-02T07:59:12.183Z,1.88
2023-02-02T08:01:40.282Z,1.92
2023-02-02T08:04:08.518Z,1.90
2023-02-02T08:06:38.238Z,1.86
2023-02-02T08:09:10.322Z,1.88
2023-02-02T08:11:38.604Z,1.84
2023-02-02T08:14:07.276Z,1.79
2023-02-02T08:16:35.364Z,1.74
2023-02-02T08:19:03.420Z,1.66
2023-02-02T08:21:34.588Z,1.62
2023-02-02T08:24:04.595Z,1.54
2023-02-02T08:26:32.825Z,1.54
2023-02-02T08:29:02.363Z,1.54
2023-02-02T08:31:31.801Z,1.48
2023-02-02T08:33:59.943Z,1.50
2023-02-02T08:36:28.987Z,1.51
2023-02-02T08:39:02.747Z,1.55
2023-02-02T08:41:31.119Z,1.56
2023-02-02T08:43:59.181Z,1.59
2023-02-02T08:46:27.247Z,1.67
2023-02-02T08:48:55.324Z,1.80
2023-02-02T08:51:23.304Z,1.88
2023-02-02T08:53:51.271Z,1.94
2023-02-02T08:56:20.546Z,1.94
2023-02-02T08:58:49.564Z,1.94
2023-02-02T09:01:18.996Z,1.97
2023-02-02T09:03:47.343Z,2.01
2023-02-02T09:06:16.558Z,2.04
2023-02-02T09:08:44.913Z,2.02
2023-02-02T09:11:14.434Z,1.96
2023-02-02T09:13:43.124Z,1.93
2023-02-02T09:16:11.786Z,1.91
2023-02-02T09:18:40.687Z,1.92
2023-02-02T09:21:10.194Z,1.90
2023-02-02T09:23:39.282Z,1.87
2023-02-02T09:26:10.853Z,1.92
2023-02-02T09:28:39.885Z,1.92
2023-02-02T09:31:08.367Z,1.99
2023-02-02T09:33:36.456Z,2.03
2023-02-02T09:36:08.616Z,2.01
2023-02-02T09:38:36.952Z,2.08
2023-02-02T09:41:20.062Z,2.12
2023-02-02T09:44:00.420Z,2.14
2023-02-02T09:46:28.390Z,2.12
2023-02-02T09:49:01.891Z,2.09
2023-02-02T09:51:36.076Z,2.13
2023-02-02T09:54:10.347Z,2.15
2023-02-02T09:56:41.361Z,2.12
2023-02-02T09:59:39.746Z,2.07
2023-02-02T10:02:26.452Z,2.02
2023-02-02T10:05:02.197Z,1.93
2023-02-02T10:07:33.544Z,1.90
2023-02-02T10:10:17.086Z,1.90
2023-02-02T10:12:57.815Z,1.85
2023-02-02T10:15:26.088Z,1.87
2023-02-02T10:17:54.205Z,1.86
2023-02-02T10:20:40.924Z,1.89
2023-02-02T10:23:29.055Z,1.83
2023-02-02T10:26:00.913Z,1.80
2023-02-02T10:28:38.509Z,1.87
2023-02-02T10:31:11.495Z,1.85
2023-02-02T10:33:40.094Z,1.79
2023-02-02T10:36:25.362Z,1.79
2023-02-02T10:38:56.397Z,2.11
2023-02-02T10:41:41.566Z,2.33
2023-02-02T10:44:18.038Z,2.46
2023-02-02T10:46:49.544Z,2.58
2023-02-02T10:49:33.661Z,2.47
2023-02-02T10:52:13.728Z,2.38
2023-02-02T10:54:56.326Z,2.37
2023-02-02T10:57:28.717Z,2.32
2023-02-02T11:00:02.335Z,2.44
2023-02-02T11:02:30.376Z,2.49
2023-02-02T11:05:17.059Z,2.52
2023-02-02T11:07:45.030Z,2.53
2023-02-02T11:10:13.014Z,2.43
2023-02-02T11:12:42.905Z,2.42
2023-02-02T11:15:27.983Z,2.32
2023-02-02T11:17:56.111Z,2.29
2023-02-02T11:20:39.283Z,2.22
2023-02-02T11:23:10.113Z,2.20
2023-02-02T11:25:39.463Z,2.20
2023-02-02T11:28:19.269Z,2.12
2023-02-02T11:30:48.973Z,2.09
2023-02-02T11:33:34.049Z,2.06
2023-02-02T11:36:06.044Z,2.13
2023-02-02T11:38:34.079Z,2.16
2023-02-02T11:41:07.203Z,2.13
2023-02-02T11:43:41.608Z,2.06
2023-02-02T11:46:29.246Z,2.07
2023-02-02T11:49:05.600Z,2.10
2023-02-02T11:51:33.555Z,2.07
2023-02-02T11:54:06.030Z,2.05
2023-02-02T11:56:38.703Z,2.06
2023-02-02T11:59:26.539Z,2.02
2023-02-02T12:02:14.396Z,1.86
2023-02-02T12:04:42.446Z,1.71
2023-02-02T12:07:20.061Z,1.66
2023-02-02T12:09:47.932Z,1.63
2023-02-02T12:12:23.667Z,1.63
2023-02-02T12:15:10.163Z,1.60
2023-02-02T12:17:40.656Z,1.63
2023-02-02T12:20:27.686Z,1.52
2023-02-02T12:23:14.666Z,1.44
2023-02-02T12:25:42.521Z,1.38
2023-02-02T12:28:11.558Z,1.47
2023-02-02T12:30:46.528Z,1.56
2023-02-02T12:33:14.588Z,1.60
2023-02-02T12:36:01.400Z,1.68
2023-02-02T12:38:29.371Z,1.73
2023-02-02T12:41:16.186Z,1.82
2023-02-02T12:43:55.831Z,1.95
2023-02-02T12:46:32.916Z,2.08
2023-02-02T12:49:00.778Z,2.18
2023-02-02T12:51:31.715Z,2.25
2023-02-02T12:54:33.502Z,2.27
2023-02-02T12:57:06.483Z,2.33
2023-02-02T12:59:46.515Z,2.36
2023-02-02T13:02:23.853Z,2.38
2023-02-02T13:05:01.100Z,2.38
2023-02-02T13:07:58.549Z,2.37
2023-02-02T13:10:32.157Z,2.36
2023-02-02T13:13:07.005Z,2.34
2023-02-02T13:15:41.197Z,2.39
2023-02-02T13:18:15.864Z,2.42
2023-02-02T13:20:45.650Z,2.48
2023-02-02T13:23:28.453Z,2.54
2023-02-02T13:26:15.443Z,2.61
2023-02-02T13:28:49.792Z,2.63
2023-02-02T13:31:24.172Z,2.66
2023-02-02T13:33:57.399Z,2.69
2023-02-02T13:36:29.858Z,2.72
2023-02-02T13:39:00.408Z,2.78
2023-02-02T13:41:29.266Z,2.80
2023-02-02T13:44:11.919Z,2.84
2023-02-02T13:46:45.826Z,2.90
2023-02-02T13:49:18.191Z,2.96
2023-02-02T13:51:53.844Z,3.00
2023-02-02T13:54:40.611Z,3.02
2023-02-02T13:57:08.620Z,3.02
2023-02-02T13:59:39.569Z,2.99
2023-02-02T14:02:30.806Z,2.92
2023-02-02T14:05:00.912Z,2.88
2023-02-02T14:07:34.595Z,2.81
2023-02-02T14:10:04.550Z,2.75
2023-02-02T14:12:34.333Z,2.69
2023-02-02T14:15:02.704Z,2.68
2023-02-02T14:17:33.578Z,2.69
2023-02-02T14:20:02.536Z,2.71
2023-02-02T14:22:39.729Z,2.73
2023-02-02T14:25:26.744Z,2.73
2023-02-02T14:27:59.604Z,2.75
2023-02-02T14:30:29.325Z,2.76
2023-02-02T14:33:15.962Z,2.76
2023-02-02T14:35:43.902Z,2.73
2023-02-02T14:38:19.045Z,2.72
2023-02-02T14:41:03.806Z,2.72
2023-02-02T14:43:49.901Z,2.71
2023-02-02T14:46:33.811Z,2.76
2023-02-02T14:49:01.914Z,2.75
2023-02-02T14:51:32.197Z,2.74
2023-02-02T14:54:06.082Z,2.77
2023-02-02T14:56:40.063Z,2.77
2023-02-02T14:59:16.729Z,2.75
2023-02-02T15:01:53.177Z,2.75
2023-02-02T15:04:24.031Z,2.74
2023-02-02T15:06:56.103Z,2.71
2023-02-02T15:09:24.069Z,2.74
2023-02-02T15:12:06.817Z,2.79
2023-02-02T15:14:53.601Z,2.82
2023-02-02T15:17:45.834Z,2.84
2023-02-02T15:20:21.550Z,2.85
2023-02-02T15:23:19.527Z,2.82
2023-02-02T15:25:50.187Z,2.74
2023-02-02T15:28:21.723Z,2.69
2023-02-02T15:30:53.058Z,2.62
2023-02-02T15:33:30.901Z,2.32
2023-02-02T15:36:03.584Z,2.01
2023-02-02T15:38:36.147Z,1.96
2023-02-02T15:41:12.928Z,1.92
2023-02-02T15:43:41.014Z,1.92
2023-02-02T15:46:12.171Z,1.86
2023-02-02T15:48:40.314Z,1.91
2023-02-02T15:51:15.025Z,1.94
2023-02-02T15:53:42.913Z,1.93
2023-02-02T15:56:21.323Z,1.93
2023-02-02T15:58:50.213Z,1.95
2023-02-02T16:01:21.438Z,1.92
2023-02-02T16:04:02.404Z,1.86
2023-02-02T16:06:31.532Z,1.80
2023-02-02T16:09:02.064Z,1.80
2023-02-02T16:11:30.445Z,1.78
2023-02-02T16:13:58.415Z,1.80
2023-02-02T16:16:29.171Z,1.79
2023-02-02T16:19:23.841Z,1.78
2023-02-02T16:21:54.995Z,1.81
2023-02-02T16:24:28.923Z,1.77
2023-02-02T16:26:59.181Z,1.82
2023-02-02T16:29:28.353Z,1.86
2023-02-02T16:31:57.105Z,1.88
2023-02-02T16:34:46.591Z,1.95
2023-02-02T16:37:16.691Z,1.97
2023-02-02T16:39:44.664Z,2.04
2023-02-02T16:42:26.252Z,2.12
2023-02-02T16:44:55.860Z,2.18
2023-02-02T16:47:26.905Z,2.22
2023-02-02T16:50:14.863Z,2.24
2023-02-02T16:52:54.073Z,2.23
2023-02-02T16:55:22.729Z,2.21
2023-02-02T16:57:51.589Z,2.19
2023-02-02T17:00:19.817Z,2.18
2023-02-02T17:02:50.187Z,2.13
2023-02-02T17:05:27.510Z,2.15
2023-02-02T17:07:58.681Z,2.17
2023-02-02T17:10:37.098Z,2.19
2023-02-02T17:13:24.970Z,2.20
2023-02-02T17:15:53.203Z,2.19
2023-02-02T17:18:21.069Z,2.14
2023-02-02T17:20:56.310Z,2.11
2023-02-02T17:23:25.428Z,2.06
2023-02-02T17:25:53.865Z,1.98
2023-02-02T17:28:24.314Z,2.02
2023-02-02T17:30:57.975Z,1.95
2023-02-02T17:33:26.499Z,1.90
2023-02-02T17:35:56.328Z,1.93
2023-02-02T17:38:25.715Z,1.93
2023-02-02T17:40:54.102Z,1.92
2023-02-02T17:43:22.264Z,1.87
2023-02-02T17:45:50.717Z,1.86
2023-02-02T17:48:19.065Z,1.89
2023-02-02T17:50:47.303Z,1.91
2023-02-02T17:53:16.908Z,1.92
2023-02-02T17:55:45.672Z,1.93
2023-02-02T17:58:17.237Z,1.92
2023-02-02T18:00:52.134Z,1.91
2023-02-02T18:03:33.948Z,1.89
2023-02-02T18:06:02.462Z,1.88
2023-02-02T18:08:31.555Z,1.87
2023-02-02T18:10:59.951Z,1.87
2023-02-02T18:13:28.370Z,1.86
2023-02-02T18:15:56.479Z,1.85
2023-02-02T18:18:24.570Z,1.83
2023-02-02T18:20:52.537Z,1.80
2023-02-02T18:23:20.600Z,1.79
2023-02-02T18:25:48.586Z,1.80
2023-02-02T18:28:17.937Z,1.80
2023-02-02T18:30:47.115Z,1.79
2023-02-02T18:33:17.946Z,1.79
2023-02-02T18:35:46.486Z,1.79
2023-02-02T18:38:14.953Z,1.80
2023-02-02T18:40:43.044Z,1.79
2023-02-02T18:43:11.323Z,1.80
2023-02-02T18:45:39.608Z,1.79
2023-02-02T18:48:07.970Z,1.77
2023-02-02T18:50:36.045Z,1.73
2023-02-02T18:53:04.230Z,1.67
2023-02-02T18:55:32.190Z,1.70
2023-02-02T18:58:00.255Z,1.66
2023-02-02T19:00:28.436Z,1.61
2023-02-02T19:02:56.408Z,1.55
2023-02-02T19:05:43.005Z,1.55
2023-02-02T19:08:10.984Z,1.54
2023-02-02T19:10:38.950Z,1.54
2023-02-02T19:13:09.782Z,1.56
2023-02-02T19:15:38.463Z,1.58
2023-02-02T19:18:11.868Z,1.58
2023-02-02T19:20:39.832Z,1.60
2023-02-02T19:23:12.007Z,1.62
2023-02-02T19:25:40.775Z,1.61
2023-02-02T19:28:22.284Z,1.61
2023-02-02T19:30:52.107Z,1.63
2023-02-02T19:33:21.202Z,1.63
2023-02-02T19:35:52.564Z,1.65
2023-02-02T19:38:29.822Z,1.67
2023-02-02T19:41:00.299Z,1.68
2023-02-02T19:43:29.458Z,1.70
2023-02-02T19:45:58.750Z,1.71
2023-02-02T19:48:31.270Z,1.73
2023-02-02T19:51:00.528Z,1.75
2023-02-02T19:53:35.767Z,1.76
2023-02-02T19:56:20.837Z,1.76
2023-02-02T19:58:48.989Z,1.77
2023-02-02T20:01:19.940Z,1.72
2023-02-02T20:03:48.022Z,1.71
2023-02-02T20:06:26.046Z,1.66
2023-02-02T20:08:54.071Z,1.68
2023-02-02T20:11:39.886Z,1.66
2023-02-02T20:14:21.880Z,1.66
2023-02-02T20:16:53.918Z,1.67
2023-02-02T20:19:23.141Z,1.67
2023-02-02T20:21:52.136Z,1.63
2023-02-02T20:24:20.005Z,1.65
2023-02-02T20:26:48.405Z,1.69
2023-02-02T20:29:19.427Z,1.72
2023-02-02T20:31:47.920Z,1.72
2023-02-02T20:34:22.849Z,1.72
2023-02-02T20:36:51.007Z,1.73
2023-02-02T20:39:48.067Z,1.79
2023-02-02T20:42:16.038Z,1.83
2023-02-02T20:44:43.925Z,1.85
2023-02-02T20:47:12.297Z,1.88
2023-02-02T20:49:40.262Z,1.93
2023-02-02T20:52:10.905Z,1.95
2023-02-02T20:54:39.408Z,1.98
2023-02-02T20:57:07.637Z,1.98
2023-02-02T20:59:36.025Z,1.99
2023-02-02T21:02:05.558Z,2.02
2023-02-02T21:04:33.907Z,2.03
2023-02-02T21:07:01.866Z,2.08
2023-02-02T21:09:29.836Z,2.13
2023-02-02T21:11:57.815Z,2.12
2023-02-02T21:14:25.701Z,2.10
2023-02-02T21:17:02.393Z,2.03
2023-02-02T21:19:40.816Z,1.97
2023-02-02T21:22:08.955Z,1.92
2023-02-02T21:24:37.006Z,1.90
2023-02-02T21:27:04.958Z,1.87
2023-02-02T21:29:33.363Z,1.79
2023-02-02T21:32:02.863Z,1.73
2023-02-02T21:34:31.134Z,1.66
2023-02-02T21:36:59.640Z,1.65
2023-02-02T21:39:37.425Z,1.66
2023-02-02T21:42:08.315Z,1.68
2023-02-02T21:44:40.734Z,1.69
2023-02-02T21:47:26.804Z,1.72
2023-02-02T21:49:59.300Z,1.75
2023-02-02T21:52:31.163Z,1.74
2023-02-02T21:55:00.191Z,1.75
2023-02-02T21:57:35.638Z,1.71
2023-02-02T22:00:32.609Z,1.61
2023-02-02T22:03:00.725Z,1.58
2023-02-02T22:05:35.769Z,1.57
2023-02-02T22:08:18.475Z,1.59
2023-02-02T22:10:47.487Z,1.64
2023-02-02T22:13:18.512Z,1.60
2023-02-02T22:15:47.993Z,1.59
2023-02-02T22:18:17.279Z,1.55
2023-02-02T22:20:47.482Z,1.45
2023-02-02T22:23:16.555Z,1.39
2023-02-02T22:25:45.009Z,1.35
2023-02-02T22:28:23.736Z,1.34
2023-02-02T22:30:52.909Z,1.36
2023-02-02T22:33:21.615Z,1.41
2023-02-02T22:35:50.018Z,1.40
2023-02-02T22:38:19.445Z,1.43
2023-02-02T22:40:48.575Z,1.39
2023-02-02T22:43:17.711Z,1.37
2023-02-02T22:45:46.369Z,1.28
2023-02-02T22:48:15.065Z,1.22
2023-02-02T22:50:43.448Z,1.20
2023-02-02T22:53:12.856Z,1.22
2023-02-02T22:55:40.820Z,1.23
2023-02-02T22:58:08.687Z,1.22
2023-02-02T23:00:37.883Z,1.25
2023-02-02T23:03:05.911Z,1.23
2023-02-02T23:05:34.027Z,1.22
2023-02-02T23:08:01.996Z,1.26
2023-02-02T23:10:35.341Z,1.28
2023-02-02T23:13:04.087Z,1.29
2023-02-02T23:15:32.049Z,1.32
2023-02-02T23:18:00.321Z,1.30
2023-02-02T23:20:28.583Z,1.34
2023-02-02T23:22:56.884Z,1.31
2023-02-02T23:25:25.164Z,1.30
2023-02-02T23:27:53.161Z,1.34
2023-02-02T23:30:24.293Z,1.37
2023-02-02T23:32:53.393Z,1.41
2023-02-02T23:35:21.325Z,1.46
2023-02-02T23:37:49.299Z,1.46
2023-02-02T23:40:17.368Z,1.51
2023-02-02T23:42:45.273Z,1.55
2023-02-02T23:45:14.670Z,1.55
2023-02-02T23:47:44.043Z,1.59
2023-02-02T23:50:12.547Z,1.63
2023-02-02T23:52:40.809Z,1.67
2023-02-02T23:55:09.587Z,1.70
2023-02-02T23:57:37.771Z,1.72
